Time;durP1;ratioP1;P1;durP2;ratioP2;P2;SDS_P1;SDS_P2;PMS_P1;PMS_P2;Temp;Humidity;BMP_temperature;BMP_pressure;BME280_temperature;BME280_humidity;BME280_pressure;Samples;Min_cycle;Max_cycle;Signal;HPM_P1;HPM_P2
2022/07/31 00:03:56;;;;;;;3.10;2.80;;;;;;;14.64;100.00;98643.50;15280530;19;20369;-79
2022/07/31 00:09:01;;;;;;;3.88;2.95;;;;;;;14.62;100.00;98640.13;15282050;19;20014;-78
2022/07/31 00:14:09;;;;;;;4.80;2.80;;;;;;;14.59;100.00;98637.75;15287319;19;20010;-79
2022/07/31 00:19:16;;;;;;;3.30;3.00;;;;;;;14.58;100.00;98644.22;15279203;19;20134;-78
2022/07/31 00:24:21;;;;;;;3.20;2.90;;;;;;;14.57;100.00;98642.53;15285362;19;20039;-78
2022/07/31 00:29:29;;;;;;;3.30;3.00;;;;;;;14.53;100.00;98633.91;15286514;19;20018;-79
2022/07/31 00:34:35;;;;;;;5.20;3.00;;;;;;;14.47;100.00;98632.78;15295375;19;20010;-78
2022/07/31 00:39:40;;;;;;;2.95;2.65;;;;;;;14.41;100.00;98617.22;15299968;19;20480;-79
2022/07/31 00:44:48;;;;;;;2.50;2.25;;;;;;;14.40;100.00;98620.13;15303528;19;20054;-79
2022/07/31 00:49:54;;;;;;;2.92;2.70;;;;;;;14.36;100.00;98630.50;15296868;19;20019;-79
2022/07/31 00:54:59;;;;;;;2.72;2.15;;;;;;;14.35;100.00;98636.09;15299840;19;20014;-78
2022/07/31 01:00:08;;;;;;;2.90;2.60;;;;;;;14.32;100.00;98632.72;15291171;19;20018;-78
2022/07/31 01:05:13;;;;;;;4.75;2.42;;;;;;;14.30;100.00;98628.47;15294717;19;21002;-78
2022/07/31 01:10:25;;;;;;;3.85;2.10;;;;;;;14.28;100.00;98628.69;15296752;19;20484;-80
2022/07/31 01:15:33;;;;;;;;;;;;;;;14.26;100.00;98629.88;15301908;19;20367;-77
2022/07/31 01:20:41;;;;;;;2.00;1.80;;;;;;;14.25;100.00;98630.91;15295657;19;19993;-79
2022/07/31 01:26:04;;;;;;;2.92;2.10;;;;;;;14.21;100.00;98626.84;15300716;19;20038;-81
2022/07/31 01:31:23;;;;;;;3.13;2.10;;;;;;;14.18;100.00;98620.78;15296961;19;20286;-78
2022/07/31 01:36:36;;;;;;;2.67;2.05;;;;;;;14.13;100.00;98630.47;15300154;19;20010;-77
2022/07/31 01:41:44;;;;;;;2.50;2.00;;;;;;;14.09;100.00;98619.16;15286525;19;20038;-77
2022/07/31 01:46:54;;;;;;;2.50;2.25;;;;;;;14.04;100.00;98626.97;15295510;19;20368;-79
2022/07/31 01:52:01;;;;;;;4.05;2.20;;;;;;;14.00;100.00;98620.22;15298890;19;20047;-80
2022/07/31 01:57:10;;;;;;;3.58;2.30;;;;;;;13.97;100.00;98620.56;15296867;19;20085;-77
2022/07/31 02:02:27;;;;;;;5.03;2.40;;;;;;;13.94;100.00;98620.91;15296393;19;20014;-77
2022/07/31 02:07:32;;;;;;;2.30;2.10;;;;;;;13.90;100.00;98611.47;15291038;19;20614;-76
2022/07/31 02:12:45;;;;;;;2.97;2.10;;;;;;;13.86;100.00;98611.00;15304940;19;20006;-79
2022/07/31 02:17:56;;;;;;;2.20;2.00;;;;;;;13.81;100.00;98600.72;15356108;19;20575;-80
2022/07/31 02:23:14;;;;;;;3.10;2.30;;;;;;;13.77;100.00;98604.78;15292445;19;20417;-77
2022/07/31 02:28:21;;;;;;;2.92;2.30;;;;;;;13.74;100.00;98618.66;15292510;19;20296;-79
2022/07/31 02:33:30;;;;;;;3.55;2.35;;;;;;;13.71;100.00;98616.31;15292920;19;20518;-76
2022/07/31 02:38:37;;;;;;;4.28;3.00;;;;;;;13.63;100.00;98609.09;15282332;19;20018;-77
2022/07/31 02:43:44;;;;;;;3.30;2.95;;;;;;;13.60;100.00;98619.41;15284308;19;20464;-76
2022/07/31 02:49:01;;;;;;;3.05;2.70;;;;;;;13.56;100.00;98610.78;15286182;19;20038;-78
2022/07/31 02:54:07;;;;;;;3.22;2.33;;;;;;;13.52;100.00;98607.59;15289745;19;20007;-78
2022/07/31 02:59:14;;;;;;;3.45;2.33;;;;;;;13.49;100.00;98607.94;15285274;19;20429;-78
2022/07/31 03:04:37;;;;;;;2.95;2.28;;;;;;;13.45;100.00;98606.63;15287346;19;20022;-78
2022/07/31 03:09:42;;;;;;;3.53;2.30;;;;;;;13.40;100.00;98593.63;15283924;19;20014;-78
2022/07/31 03:15:08;;;;;;;3.05;2.50;;;;;;;13.37;100.00;98606.59;15284249;19;20067;-77
2022/07/31 03:20:17;;;;;;;3.60;2.85;;;;;;;13.33;100.00;98602.59;15282756;19;20003;-78
2022/07/31 03:25:22;;;;;;;3.05;2.58;;;;;;;13.30;100.00;98589.41;15288404;19;20034;-79
2022/07/31 03:30:28;;;;;;;3.03;2.72;;;;;;;13.26;100.00;98597.03;15285031;19;20039;-79
2022/07/31 03:35:36;;;;;;;4.38;2.42;;;;;;;13.23;100.00;98583.84;15287924;19;20015;-77
2022/07/31 03:40:48;;;;;;;2.63;2.42;;;;;;;13.21;100.00;98593.97;15279874;19;20027;-76
2022/07/31 03:45:54;;;;;;;4.53;2.60;;;;;;;13.20;100.00;98593.16;15288876;19;20495;-78
2022/07/31 03:51:03;;;;;;;2.85;2.30;;;;;;;13.21;100.00;98585.88;15281806;19;20086;-78
2022/07/31 03:56:09;;;;;;;3.78;2.33;;;;;;;13.19;100.00;98586.06;15288216;19;20027;-77
2022/07/31 04:01:13;;;;;;;3.03;2.20;;;;;;;13.20;100.00;98587.75;15285952;19;20006;-78
2022/07/31 04:06:21;;;;;;;3.75;3.00;;;;;;;13.20;100.00;98587.75;15284234;19;20010;-79
2022/07/31 04:11:26;;;;;;;5.60;2.58;;;;;;;13.22;100.00;98590.25;15289358;19;20013;-77
2022/07/31 04:16:32;;;;;;;2.83;2.53;;;;;;;13.26;100.00;98602.44;15283314;19;20035;-79
2022/07/31 04:21:39;;;;;;;3.05;2.47;;;;;;;13.31;100.00;98596.50;15282666;19;20963;-78
2022/07/31 04:26:45;;;;;;;2.97;2.30;;;;;;;13.36;100.00;98603.06;15288252;19;20030;-79
2022/07/31 04:31:50;;;;;;;3.35;2.30;;;;;;;13.44;100.00;98602.22;15286498;19;20476;-77
2022/07/31 04:37:04;;;;;;;2.50;2.30;;;;;;;13.57;100.00;98604.38;15282866;19;20021;-77
2022/07/31 04:42:10;;;;;;;2.50;2.20;;;;;;;13.68;100.00;98608.56;15282946;19;20369;-77
2022/07/31 04:47:16;;;;;;;2.40;2.20;;;;;;;13.81;100.00;98622.38;15322227;19;20014;-77
2022/07/31 04:52:30;;;;;;;2.70;2.20;;;;;;;13.94;100.00;98629.03;15313211;19;20003;-76
2022/07/31 04:57:40;;;;;;;2.85;2.42;;;;;;;14.04;100.00;98624.28;15281564;19;20562;-78
2022/07/31 05:02:46;;;;;;;2.25;2.00;;;;;;;14.15;100.00;98628.41;15281538;19;20011;-78
2022/07/31 05:07:55;;;;;;;2.53;2.33;;;;;;;14.30;100.00;98636.63;15280004;19;20498;-78
2022/07/31 05:13:07;;;;;;;2.88;2.10;;;;;;;14.43;100.00;98642.28;15282502;19;20542;-78
2022/07/31 05:18:12;;;;;;;3.10;2.10;;;;;;;14.55;100.00;98633.72;15289257;19;20006;-77
2022/07/31 05:23:40;;;;;;;2.30;2.10;;;;;;;14.65;100.00;98639.75;15293984;19;20413;-78
2022/07/31 05:29:02;;;;;;;2.70;2.05;;;;;;;14.73;100.00;98637.00;15293619;19;20010;-77
2022/07/31 05:34:07;;;;;;;2.35;2.08;;;;;;;14.83;100.00;98635.91;15296600;19;20459;-78
2022/07/31 05:39:16;;;;;;;2.65;1.88;;;;;;;14.92;100.00;98629.38;15293579;19;20031;-77
2022/07/31 05:44:39;;;;;;;2.65;2.00;;;;;;;15.04;100.00;98637.91;15294393;19;20524;-78
2022/07/31 05:49:45;;;;;;;4.35;2.10;;;;;;;15.16;100.00;98630.16;14783147;19;10000462;-78
2022/07/31 05:54:52;;;;;;;2.85;1.80;;;;;;;15.24;100.00;98633.63;15324342;19;20038;-79
2022/07/31 06:00:27;;;;;;;2.00;1.90;;;;;;;15.39;100.00;98647.19;15332160;19;20112;-80
2022/07/31 06:05:34;;;;;;;3.40;2.00;;;;;;;15.52;100.00;98643.81;15286784;19;20023;-78
2022/07/31 06:10:45;;;;;;;2.80;2.00;;;;;;;15.67;100.00;98646.53;15287178;19;20017;-78
2022/07/31 06:15:50;;;;;;;2.20;2.00;;;;;;;15.77;100.00;98648.94;15292039;19;20042;-78
2022/07/31 06:20:56;;;;;;;2.75;1.80;;;;;;;15.91;100.00;98643.72;15291463;19;20034;-78
2022/07/31 06:26:04;;;;;;;2.15;1.90;;;;;;;16.01;100.00;98639.69;15286380;19;20086;-77
2022/07/31 06:31:18;;;;;;;2.20;2.00;;;;;;;16.15;100.00;98640.66;15287581;19;20030;-77
2022/07/31 06:36:23;;;;;;;2.17;1.67;;;;;;;16.25;100.00;98640.34;15296997;19;20039;-78
2022/07/31 06:41:46;;;;;;;2.08;1.65;;;;;;;16.38;100.00;98636.91;15304728;19;20028;-79
2022/07/31 06:47:06;;;;;;;2.70;1.98;;;;;;;16.51;100.00;98638.94;15296024;19;20055;-78
2022/07/31 06:52:28;;;;;;;2.25;1.70;;;;;;;16.64;100.00;98625.44;15294968;19;20018;-77
2022/07/31 06:57:36;;;;;;;2.28;1.90;;;;;;;16.82;100.00;98621.41;15286555;19;20078;-77
2022/07/31 07:02:42;;;;;;;1.95;1.60;;;;;;;16.98;100.00;98620.31;15283849;19;20098;-77
2022/07/31 07:07:47;;;;;;;1.80;1.60;;;;;;;17.13;100.00;98619.38;15285219;19;20475;-77
2022/07/31 07:12:55;;;;;;;2.58;1.90;;;;;;;17.30;100.00;98611.75;15288367;19;20018;-77
2022/07/31 07:18:00;;;;;;;2.75;1.90;;;;;;;17.45;100.00;98592.53;15286697;19;20518;-77
2022/07/31 07:23:11;;;;;;;2.10;1.58;;;;;;;17.63;100.00;98597.44;15285701;19;20014;-77
2022/07/31 07:28:32;;;;;;;4.78;1.73;;;;;;;17.79;100.00;98596.25;15283130;19;20022;-77
2022/07/31 07:33:39;;;;;;;2.42;1.70;;;;;;;17.94;100.00;98582.47;15283163;19;20018;-76
2022/07/31 07:38:57;;;;;;;2.40;1.73;;;;;;;18.06;100.00;98582.75;15281403;19;20468;-77
2022/07/31 07:44:05;;;;;;;2.08;1.73;;;;;;;18.18;100.00;98581.09;15285198;19;20039;-77
2022/07/31 07:49:11;;;;;;;2.42;1.63;;;;;;;18.27;100.00;98568.94;15284948;19;20014;-77
2022/07/31 07:54:21;;;;;;;2.55;1.52;;;;;;;18.47;100.00;98565.38;15286598;19;20014;-77
2022/07/31 08:00:00;;;;;;;3.17;1.80;;;;;;;18.67;100.00;98564.56;15276999;19;20022;-77
2022/07/31 08:05:21;;;;;;;2.45;1.60;;;;;;;18.86;100.00;98560.97;15275984;19;20653;-77
2022/07/31 08:10:27;;;;;;;4.13;1.90;;;;;;;19.02;100.00;98548.78;15285173;19;20496;-77
2022/07/31 08:15:42;;;;;;;2.45;1.65;;;;;;;19.20;100.00;98550.03;15286300;19;20053;-77
2022/07/31 08:21:03;;;;;;;1.95;1.52;;;;;;;19.41;100.00;98548.88;15285547;19;20018;-76
2022/07/31 08:26:09;;;;;;;3.17;1.63;;;;;;;19.62;100.00;98539.56;15283220;19;20090;-77
2022/07/31 08:31:21;;;;;;;4.28;1.60;;;;;;;19.78;100.00;98529.19;15280456;19;20011;-77
2022/07/31 08:36:41;;;;;;;2.42;1.50;;;;;;;19.99;100.00;98528.06;15276870;19;20006;-77
2022/07/31 08:41:46;;;;;;;1.92;1.50;;;;;;;20.13;100.00;98529.63;15282984;19;20484;-76
2022/07/31 08:46:58;;;;;;;3.63;1.70;;;;;;;20.33;100.00;98513.06;15280216;19;20022;-76
2022/07/31 08:52:04;;;;;;;2.50;1.60;;;;;;;20.59;100.00;98522.13;15292353;19;20014;-77
2022/07/31 08:57:27;;;;;;;3.55;1.73;;;;;;;20.78;100.00;98516.72;15292380;19;20020;-77
2022/07/31 09:02:39;;;;;;;5.40;1.50;;;;;;;20.98;100.00;98508.28;15292139;19;20503;-77
2022/07/31 09:08:20;;;;;;;5.38;1.60;;;;;;;21.27;100.00;98499.53;15291255;19;20381;-77
2022/07/31 09:13:27;;;;;;;3.88;1.40;;;;;;;21.46;100.00;98503.13;15294691;19;20101;-77
2022/07/31 09:18:39;;;;;;;5.20;1.10;;;;;;;21.64;100.00;98488.56;15291977;19;20011;-76
2022/07/31 09:23:49;;;;;;;2.83;1.20;;;;;;;21.78;100.00;98480.97;15292952;19;20102;-76
2022/07/31 09:28:54;;;;;;;3.38;1.10;;;;;;;21.83;100.00;98479.22;15291844;19;20027;-76
2022/07/31 09:34:02;;;;;;;1.95;1.02;;;;;;;21.88;100.00;98483.16;15296346;19;20419;-76
2022/07/31 09:39:14;;;;;;;4.93;1.10;;;;;;;21.88;100.00;98480.44;15291542;19;20011;-76
2022/07/31 09:44:51;;;;;;;2.80;1.00;;;;;;;22.14;100.00;98470.94;15289721;19;20790;-76
2022/07/31 09:50:01;;;;;;;2.45;0.98;;;;;;;22.26;100.00;98473.72;15295576;19;20014;-76
2022/07/31 09:55:11;;;;;;;2.17;1.08;;;;;;;22.31;100.00;98471.09;15347122;19;20049;-76
2022/07/31 10:00:20;;;;;;;2.35;0.90;;;;;;;22.50;100.00;98460.88;15316539;19;20006;-76
2022/07/31 10:05:30;;;;;;;3.40;0.90;;;;;;;22.82;100.00;98448.69;15285648;19;20028;-76
2022/07/31 10:10:44;;;;;;;3.35;1.00;;;;;;;23.13;100.00;98444.69;15282520;19;20436;-76
2022/07/31 10:16:16;;;;;;;4.40;0.90;;;;;;;23.29;100.00;98445.88;15286400;19;20073;-76
2022/07/31 10:21:37;;;;;;;2.35;0.93;;;;;;;23.24;100.00;98437.50;15309663;19;20035;-76
2022/07/31 10:26:49;;;;;;;1.48;0.80;;;;;;;23.23;100.00;98433.09;15343816;19;20014;-79
2022/07/31 10:32:05;;;;;;;1.83;0.73;;;;;;;23.34;100.00;98417.66;15298531;19;20011;-75
2022/07/31 10:37:21;;;;;;;2.85;0.88;;;;;;;23.44;100.00;98425.28;15288695;19;20359;-75
2022/07/31 10:42:50;;;;;;;1.70;0.80;;;;;;;23.54;100.00;98411.72;15287081;19;20007;-75
2022/07/31 10:47:56;;;;;;;3.92;0.90;;;;;;;23.69;100.00;98409.25;15279108;19;20055;-74
2022/07/31 10:53:24;;;;;;;1.35;0.77;;;;;;;23.80;100.00;98398.44;15289795;19;20419;-74
2022/07/31 10:59:00;;;;;;;2.97;0.90;;;;;;;23.93;100.00;98386.25;15281955;19;20006;-74
2022/07/31 11:04:33;;;;;;;4.60;0.80;;;;;;;24.10;100.00;98386.28;15281949;19;20010;-73
2022/07/31 11:09:55;;;;;;;2.92;0.70;;;;;;;24.28;88.13;98380.53;15281986;19;20250;-73
2022/07/31 11:15:25;;;;;;;3.83;0.80;;;;;;;24.33;81.03;98365.16;15280275;19;20035;-74
2022/07/31 11:21:00;;;;;;;1.45;0.77;;;;;;;24.43;79.06;98370.81;15276806;19;20034;-75
2022/07/31 11:26:28;;;;;;;3.05;0.70;;;;;;;24.48;83.61;98365.38;15275270;19;20015;-75
2022/07/31 11:31:48;;;;;;;1.10;0.60;;;;;;;24.56;81.57;98370.44;15284535;19;20014;-78
2022/07/31 11:37:00;;;;;;;1.92;0.85;;;;;;;24.39;91.97;98362.22;15282322;19;20014;-76
2022/07/31 11:42:12;;;;;;;3.53;0.82;;;;;;;24.46;78.79;98365.63;15280246;19;20151;-75
2022/07/31 11:47:20;;;;;;;1.20;0.68;;;;;;;24.68;83.68;98355.72;15270900;19;20062;-75
2022/07/31 11:52:46;;;;;;;2.67;0.80;;;;;;;24.80;74.65;98345.44;15278615;19;20106;-75
2022/07/31 11:57:54;;;;;;;3.05;0.80;;;;;;;25.15;71.33;98335.94;15281397;19;20018;-75
2022/07/31 12:03:00;;;;;;;2.20;0.70;;;;;;;25.39;82.75;98346.66;15281278;19;20007;-74
2022/07/31 12:08:08;;;;;;;2.20;0.70;;;;;;;25.45;68.89;98329.09;15252466;19;20010;-73
2022/07/31 12:13:18;;;;;;;3.90;0.70;;;;;;;25.66;64.07;98332.03;15277977;19;20011;-74
2022/07/31 12:18:26;;;;;;;3.53;0.70;;;;;;;25.81;62.23;98332.16;15274105;19;20459;-75
2022/07/31 12:23:42;;;;;;;1.35;0.70;;;;;;;25.93;62.53;98331.16;15274669;19;20014;-75
2022/07/31 12:29:01;;;;;;;1.67;0.50;;;;;;;25.91;59.39;98325.06;15288566;19;20034;-76
2022/07/31 12:34:06;;;;;;;1.58;0.60;;;;;;;25.92;61.82;98323.97;15294168;19;20361;-76
2022/07/31 12:39:13;;;;;;;1.92;0.80;;;;;;;25.96;60.31;98323.19;15292940;19;20471;-76
2022/07/31 12:44:21;;;;;;;1.98;0.70;;;;;;;26.04;60.87;98321.88;15297233;19;20002;-76
2022/07/31 12:49:27;;;;;;;2.33;0.70;;;;;;;26.17;62.12;98301.25;15286233;19;20025;-75
2022/07/31 12:54:34;;;;;;;4.10;0.82;;;;;;;26.29;64.20;98293.59;15287164;19;20559;-76
2022/07/31 12:59:45;;;;;;;1.92;0.70;;;;;;;26.52;64.84;98290.69;15291388;19;20006;-76
2022/07/31 13:04:52;;;;;;;2.78;0.70;;;;;;;26.48;57.70;98284.03;15291861;19;20046;-76
2022/07/31 13:09:57;;;;;;;5.55;0.77;;;;;;;26.58;60.83;98273.84;15290814;19;20011;-76
2022/07/31 13:15:28;;;;;;;0.82;0.55;;;;;;;26.55;55.83;98262.50;15296139;19;20648;-77
2022/07/31 13:20:34;;;;;;;3.75;0.55;;;;;;;26.54;53.84;98261.69;15282302;19;20078;-77
2022/07/31 13:25:40;;;;;;;2.47;0.70;;;;;;;26.58;56.45;98257.25;15289296;19;20358;-76
2022/07/31 13:30:48;;;;;;;1.20;0.70;;;;;;;26.82;55.31;98256.00;15283518;19;20025;-77
2022/07/31 13:35:58;;;;;;;2.15;0.50;;;;;;;26.67;55.85;98259.53;15289842;19;20339;-75
2022/07/31 13:46:25;;;;;;;0.90;0.35;;;;;;;26.52;55.15;98241.78;15289784;19;20017;-75
2022/07/31 13:51:29;;;;;;;2.13;0.50;;;;;;;26.56;53.37;98244.81;15291395;19;20022;-75
2022/07/31 13:56:35;;;;;;;1.20;0.40;;;;;;;26.44;52.23;98234.03;15293696;19;20095;-76
2022/07/31 14:01:50;;;;;;;3.05;0.60;;;;;;;26.37;51.80;98239.78;15298361;19;20010;-77
2022/07/31 14:07:25;;;;;;;1.67;0.63;;;;;;;26.24;52.58;98240.28;15335070;19;20650;-75
2022/07/31 14:12:52;;;;;;;1.45;0.50;;;;;;;26.07;55.16;98241.25;15338351;19;20006;-79
2022/07/31 14:18:00;;;;;;;2.72;0.60;;;;;;;26.02;54.40;98232.97;15292223;19;20007;-78
2022/07/31 14:23:11;;;;;;;1.08;0.50;;;;;;;26.08;56.25;98237.41;15298669;19;20024;-77
2022/07/31 14:28:16;;;;;;;1.27;0.50;;;;;;;26.12;58.48;98233.03;15285954;19;20573;-78
2022/07/31 14:33:24;;;;;;;1.08;0.55;;;;;;;26.14;57.07;98235.53;15290365;19;20013;-78
2022/07/31 14:38:29;;;;;;;0.63;0.50;;;;;;;25.91;56.72;98226.53;15295760;19;20045;-78
2022/07/31 14:43:35;;;;;;;1.70;0.50;;;;;;;25.84;57.60;98226.78;15303621;19;20014;-77
2022/07/31 14:48:42;;;;;;;2.45;0.60;;;;;;;26.07;58.73;98224.69;15291997;19;20025;-77
2022/07/31 14:53:47;;;;;;;1.33;0.45;;;;;;;25.98;59.83;98220.78;15295665;19;20011;-79
2022/07/31 14:58:52;;;;;;;5.15;0.57;;;;;;;26.13;58.97;98215.38;15290267;19;20011;-78
2022/07/31 15:04:05;;;;;;;1.75;0.60;;;;;;;26.21;57.73;98211.28;15291806;19;20085;-79
2022/07/31 15:09:10;;;;;;;1.23;0.68;;;;;;;26.27;60.92;98206.63;15293608;19;20030;-78
2022/07/31 15:14:18;;;;;;;4.63;0.82;;;;;;;26.44;59.98;98211.94;15297238;19;20018;-79
2022/07/31 15:19:27;;;;;;;0.60;0.50;;;;;;;26.41;60.11;98215.22;15296283;19;20011;-79
2022/07/31 15:24:32;;;;;;;1.83;0.60;;;;;;;26.32;62.25;98212.13;15297131;19;20034;-79
2022/07/31 15:29:37;;;;;;;2.00;0.80;;;;;;;26.34;61.02;98215.47;15287948;19;20021;-77
2022/07/31 15:35:05;;;;;;;1.33;0.50;;;;;;;26.10;60.46;98217.84;15288250;19;20018;-77
2022/07/31 15:40:13;;;;;;;2.35;0.63;;;;;;;26.03;63.02;98211.69;15289177;19;20014;-78
2022/07/31 15:45:20;;;;;;;2.25;0.70;;;;;;;25.92;62.38;98210.81;15294800;19;20649;-78
2022/07/31 15:50:31;;;;;;;1.85;0.70;;;;;;;25.85;62.80;98211.88;15286187;19;20022;-76
2022/07/31 15:55:38;;;;;;;2.70;0.80;;;;;;;25.79;66.36;98207.44;15293218;19;20002;-77
2022/07/31 16:00:43;;;;;;;1.90;0.73;;;;;;;25.69;69.96;98207.38;15283582;19;20014;-78
2022/07/31 16:05:53;;;;;;;1.95;0.70;;;;;;;25.56;68.28;98200.38;15289597;19;20014;-77
2022/07/31 16:10:59;;;;;;;2.45;0.60;;;;;;;25.43;69.39;98207.19;15282388;19;20002;-78
2022/07/31 16:16:06;;;;;;;1.98;0.77;;;;;;;25.29;74.32;98205.94;15333125;19;20051;-78
2022/07/31 16:21:13;;;;;;;3.30;0.77;;;;;;;25.20;74.36;98209.19;15309064;19;20054;-81
2022/07/31 16:26:18;;;;;;;1.25;0.63;;;;;;;25.04;79.52;98205.47;15299647;19;20903;-80
2022/07/31 16:31:23;;;;;;;5.03;0.80;;;;;;;24.80;100.00;98218.72;15301670;19;20014;-80
2022/07/31 16:36:37;;;;;;;1.17;0.70;;;;;;;24.76;100.00;98198.28;15309394;19;20010;-80
2022/07/31 16:41:42;;;;;;;0.93;0.60;;;;;;;24.68;100.00;98196.81;15301418;19;20142;-79
2022/07/31 16:46:58;;;;;;;2.92;0.70;;;;;;;24.65;100.00;98191.81;15292948;19;20026;-80
2022/07/31 16:52:08;;;;;;;1.27;0.73;;;;;;;24.59;100.00;98192.81;15297011;19;20411;-78
2022/07/31 16:57:14;;;;;;;1.13;0.70;;;;;;;24.51;100.00;98182.28;15294580;19;20057;-80
2022/07/31 17:02:19;;;;;;;1.55;0.80;;;;;;;24.43;100.00;98181.66;15291075;19;20011;-79
2022/07/31 17:07:27;;;;;;;1.23;0.60;;;;;;;24.40;100.00;98175.84;15279726;19;20021;-76
2022/07/31 17:12:32;;;;;;;1.58;0.73;;;;;;;24.35;100.00;98168.34;15281422;19;20035;-76
2022/07/31 17:17:37;;;;;;;1.85;0.60;;;;;;;24.33;100.00;98175.19;15291951;19;20028;-76
2022/07/31 17:22:44;;;;;;;1.00;0.60;;;;;;;24.29;100.00;98169.38;15294297;19;20055;-78
2022/07/31 17:27:57;;;;;;;1.02;0.60;;;;;;;24.23;100.00;98160.22;15298926;19;20014;-78
2022/07/31 17:33:02;;;;;;;1.73;0.60;;;;;;;24.22;100.00;98169.56;15298214;19;20034;-76
2022/07/31 17:38:10;;;;;;;1.00;0.60;;;;;;;24.15;100.00;98168.94;15292978;19;20011;-76
2022/07/31 17:43:15;;;;;;;2.88;0.60;;;;;;;24.07;98.82;98183.97;15293587;19;20365;-76
2022/07/31 17:48:31;;;;;;;1.00;0.60;;;;;;;24.00;100.00;98183.31;15286909;19;20025;-77
2022/07/31 17:53:39;;;;;;;3.72;0.68;;;;;;;23.88;100.00;98180.66;15299043;19;20010;-75
2022/07/31 17:59:04;;;;;;;1.60;0.70;;;;;;;23.76;100.00;98169.75;15297497;19;20066;-77
2022/07/31 18:04:09;;;;;;;2.53;0.87;;;;;;;23.60;100.00;98151.41;15309127;19;20035;-78
2022/07/31 18:09:22;;;;;;;1.70;0.70;;;;;;;23.44;100.00;98153.91;15298240;19;20403;-78
2022/07/31 18:14:27;;;;;;;1.38;0.70;;;;;;;23.36;100.00;98151.59;15297097;19;20034;-77
2022/07/31 18:19:32;;;;;;;2.15;0.70;;;;;;;23.26;100.00;98154.19;15290448;19;20010;-77
2022/07/31 18:24:40;;;;;;;1.92;0.70;;;;;;;23.20;100.00;98165.09;15343466;19;20011;-77
2022/07/31 18:29:46;;;;;;;0.88;0.60;;;;;;;23.08;100.00;98162.41;15340309;19;20164;-77
2022/07/31 18:35:00;;;;;;;2.22;0.57;;;;;;;23.02;100.00;98168.88;15294926;19;20030;-77
2022/07/31 18:40:11;;;;;;;1.63;0.60;;;;;;;23.01;100.00;98155.41;15291759;19;20058;-78
2022/07/31 18:45:23;;;;;;;1.27;0.60;;;;;;;23.01;100.00;98172.72;15296024;19;20408;-77
2022/07/31 18:50:28;;;;;;;2.05;0.80;;;;;;;22.90;100.00;98188.22;15284130;19;20035;-78
2022/07/31 18:55:56;;;;;;;1.63;0.60;;;;;;;22.75;100.00;98197.00;15298182;19;20031;-80
2022/07/31 19:01:01;;;;;;;1.10;0.70;;;;;;;22.67;100.00;98200.13;15293824;19;20014;-80
2022/07/31 19:06:07;;;;;;;1.83;0.70;;;;;;;22.62;100.00;98195.38;15295006;19;20011;-79
2022/07/31 19:11:14;;;;;;;1.08;0.70;;;;;;;22.60;100.00;98197.53;15294742;19;20010;-79
2022/07/31 19:16:19;;;;;;;1.98;0.70;;;;;;;22.58;100.00;98190.63;15290714;19;20006;-78
2022/07/31 19:21:25;;;;;;;1.23;0.75;;;;;;;22.53;100.00;98185.03;15291362;19;20357;-78
2022/07/31 19:27:05;;;;;;;1.77;0.70;;;;;;;22.49;100.00;98184.69;15295583;19;20125;-79
2022/07/31 19:32:10;;;;;;;3.60;0.60;;;;;;;22.40;100.00;98189.69;15295388;19;20017;-80
2022/07/31 19:37:15;;;;;;;1.40;0.70;;;;;;;22.33;100.00;98189.00;15290796;19;20042;-79
2022/07/31 19:42:22;;;;;;;1.88;0.60;;;;;;;22.31;100.00;98182.94;15298047;19;20037;-79
2022/07/31 19:47:30;;;;;;;3.10;0.80;;;;;;;22.28;100.00;98191.69;15291986;19;20018;-78
2022/07/31 19:52:37;;;;;;;1.83;0.70;;;;;;;22.23;100.00;98180.56;15296127;19;20074;-80
2022/07/31 19:57:52;;;;;;;1.52;0.60;;;;;;;22.22;100.00;98187.16;15293145;19;20352;-78
2022/07/31 20:03:00;;;;;;;3.15;0.68;;;;;;;22.16;100.00;98184.31;15292753;19;20034;-78
2022/07/31 20:08:07;;;;;;;1.67;0.60;;;;;;;22.13;100.00;98176.56;15291520;19;20555;-78
2022/07/31 20:13:15;;;;;;;0.90;0.60;;;;;;;22.11;100.00;98175.97;15292411;19;20621;-78
2022/07/31 20:18:51;;;;;;;1.73;0.70;;;;;;;22.05;100.00;98176.91;15293114;19;20866;-78
2022/07/31 20:23:59;;;;;;;1.05;0.70;;;;;;;22.04;100.00;98169.78;15286181;19;20547;-78
2022/07/31 20:29:07;;;;;;;2.28;0.70;;;;;;;21.98;100.00;98176.22;15278995;19;20010;-79
2022/07/31 20:34:12;;;;;;;2.33;0.70;;;;;;;21.98;100.00;98178.97;15293690;19;20017;-80
2022/07/31 20:39:17;;;;;;;1.92;0.77;;;;;;;21.99;100.00;98186.94;15289271;19;20010;-79
2022/07/31 20:44:25;;;;;;;0.93;0.63;;;;;;;21.99;100.00;98183.38;15282983;19;20017;-79
2022/07/31 20:49:31;;;;;;;0.90;0.50;;;;;;;21.93;100.00;98195.34;15298452;19;20039;-79
2022/07/31 20:54:40;;;;;;;1.63;0.70;;;;;;;21.99;100.00;98199.84;15300457;19;20014;-79
2022/07/31 20:59:48;;;;;;;1.02;0.65;;;;;;;21.97;100.00;98196.50;15292225;19;20007;-77
2022/07/31 21:04:53;;;;;;;1.20;0.60;;;;;;;21.96;100.00;98194.84;15298567;19;20568;-75
2022/07/31 21:09:59;;;;;;;1.45;0.65;;;;;;;21.86;100.00;98190.78;15289929;19;20017;-76
2022/07/31 21:15:08;;;;;;;1.80;0.80;;;;;;;21.80;100.00;98194.50;15299800;19;20022;-78
2022/07/31 21:20:33;;;;;;;3.15;0.75;;;;;;;21.65;100.00;98194.16;15287736;19;20055;-76
2022/07/31 21:25:58;;;;;;;3.35;0.77;;;;;;;21.67;100.00;98181.06;15294898;19;20055;-77
2022/07/31 21:31:07;;;;;;;1.40;0.73;;;;;;;21.64;100.00;98181.53;15267005;19;20034;-76
2022/07/31 21:36:15;;;;;;;2.22;0.70;;;;;;;21.62;100.00;98180.91;15297767;19;20518;-77
2022/07/31 21:41:22;;;;;;;3.08;0.60;;;;;;;21.59;100.00;98176.75;15297266;19;20006;-76
2022/07/31 21:46:31;;;;;;;4.10;0.80;;;;;;;21.53;100.00;98181.25;15300334;19;20034;-76
2022/07/31 21:51:37;;;;;;;1.10;0.70;;;;;;;21.46;100.00;98175.03;15293502;19;20043;-76
2022/07/31 21:56:44;;;;;;;1.40;0.80;;;;;;;21.44;100.00;98190.91;15298050;19;20026;-77
2022/07/31 22:01:52;;;;;;;2.10;0.82;;;;;;;21.36;100.00;98192.09;15298333;19;20018;-77
2022/07/31 22:12:29;;;;;;;2.40;0.80;;;;;;;21.22;100.00;98196.13;15355156;19;20022;-77
2022/07/31 22:17:37;;;;;;;1.75;0.80;;;;;;;21.13;100.00;98190.16;15299846;19;20074;-78
2022/07/31 22:22:44;;;;;;;3.15;0.90;;;;;;;21.06;100.00;98181.22;15299994;19;20018;-77
2022/07/31 22:27:55;;;;;;;2.63;0.70;;;;;;;20.99;100.00;98188.72;15295330;19;20030;-76
2022/07/31 22:33:11;;;;;;;2.88;0.88;;;;;;;20.93;100.00;98171.31;15321316;19;20002;-76
2022/07/31 22:38:16;;;;;;;1.63;0.80;;;;;;;20.81;100.00;98184.97;15350601;19;20050;-77
2022/07/31 22:43:22;;;;;;;2.58;0.82;;;;;;;20.66;100.00;98177.16;15289432;19;20082;-76
2022/07/31 22:48:49;;;;;;;1.95;0.80;;;;;;;20.53;100.00;98182.81;15283885;19;20014;-76
2022/07/31 22:53:54;;;;;;;1.67;0.80;;;;;;;20.41;100.00;98188.22;15287361;19;20037;-76
2022/07/31 22:59:00;;;;;;;1.60;0.80;;;;;;;20.32;100.00;98188.56;15282416;19;20017;-76
2022/07/31 23:04:07;;;;;;;1.75;0.80;;;;;;;20.23;100.00;98187.22;15281861;19;20649;-76
2022/07/31 23:09:12;;;;;;;1.85;0.80;;;;;;;20.17;100.00;98177.19;15276398;19;20014;-75
2022/07/31 23:14:17;;;;;;;1.40;0.80;;;;;;;20.12;100.00;98179.78;15287004;19;20026;-75
2022/07/31 23:19:25;;;;;;;0.82;0.73;;;;;;;20.04;100.00;98171.91;15280921;19;20566;-76
2022/07/31 23:24:30;;;;;;;3.78;0.70;;;;;;;19.97;100.00;98181.00;15289784;19;20010;-76
2022/07/31 23:29:37;;;;;;;2.63;0.90;;;;;;;19.91;100.00;98176.47;15286715;19;20816;-78
2022/07/31 23:34:47;;;;;;;0.75;0.70;;;;;;;19.84;100.00;98175.66;15283441;19;20018;-78
2022/07/31 23:39:53;;;;;;;1.00;0.80;;;;;;;19.77;100.00;98174.91;15278870;19;20014;-77
2022/07/31 23:44:58;;;;;;;0.90;0.70;;;;;;;19.74;100.00;98178.09;15285625;19;20010;-81
2022/07/31 23:50:06;;;;;;;1.05;0.80;;;;;;;19.70;100.00;98183.16;15281529;19;20007;-77
2022/07/31 23:55:13;;;;;;;1.73;0.90;;;;;;;19.65;100.00;98178.38;15284497;19;20441;-76
